sensor_id;sensor_type;location;lat;lon;timestamp;P1;durP1;ratioP1;P2;durP2;ratioP2
23232;SDS011;11785;49.500;8.288;2022-12-10T00:01:43;29.63;;;15.32;;
23232;SDS011;11785;49.500;8.288;2022-12-10T00:04:09;28.42;;;14.82;;
23232;SDS011;11785;49.500;8.288;2022-12-10T00:06:36;27.92;;;14.57;;
23232;SDS011;11785;49.500;8.288;2022-12-10T00:09:03;30.58;;;15.98;;
23232;SDS011;11785;49.500;8.288;2022-12-10T00:11:31;33.65;;;15.98;;
23232;SDS011;11785;49.500;8.288;2022-12-10T00:13:57;28.73;;;14.80;;
23232;SDS011;11785;49.500;8.288;2022-12-10T00:16:24;29.05;;;15.05;;
23232;SDS011;11785;49.500;8.288;2022-12-10T00:18:51;30.83;;;15.35;;
23232;SDS011;11785;49.500;8.288;2022-12-10T00:21:19;28.73;;;15.20;;
23232;SDS011;11785;49.500;8.288;2022-12-10T00:23:49;26.10;;;14.60;;
23232;SDS011;11785;49.500;8.288;2022-12-10T00:26:20;27.92;;;14.25;;
23232;SDS011;11785;49.500;8.288;2022-12-10T00:28:47;27.70;;;14.98;;
23232;SDS011;11785;49.500;8.288;2022-12-10T00:31:17;30.27;;;14.95;;
23232;SDS011;11785;49.500;8.288;2022-12-10T00:33:44;30.90;;;14.88;;
23232;SDS011;11785;49.500;8.288;2022-12-10T00:36:12;30.33;;;14.82;;
23232;SDS011;11785;49.500;8.288;2022-12-10T00:38:39;29.88;;;14.88;;
23232;SDS011;11785;49.500;8.288;2022-12-10T00:41:05;29.27;;;15.20;;
23232;SDS011;11785;49.500;8.288;2022-12-10T00:43:31;29.02;;;15.18;;
23232;SDS011;11785;49.500;8.288;2022-12-10T00:45:57;29.90;;;15.98;;
23232;SDS011;11785;49.500;8.288;2022-12-10T00:48:23;30.38;;;15.10;;
23232;SDS011;11785;49.500;8.288;2022-12-10T00:50:55;32.13;;;16.10;;
23232;SDS011;11785;49.500;8.288;2022-12-10T00:53:22;30.02;;;15.27;;
23232;SDS011;11785;49.500;8.288;2022-12-10T00:55:49;29.73;;;15.93;;
23232;SDS011;11785;49.500;8.288;2022-12-10T00:58:15;30.45;;;15.82;;
23232;SDS011;11785;49.500;8.288;2022-12-10T01:00:40;28.92;;;16.02;;
23232;SDS011;11785;49.500;8.288;2022-12-10T01:03:06;32.08;;;16.25;;
23232;SDS011;11785;49.500;8.288;2022-12-10T01:05:31;30.25;;;16.02;;
23232;SDS011;11785;49.500;8.288;2022-12-10T01:07:57;35.85;;;16.33;;
23232;SDS011;11785;49.500;8.288;2022-12-10T01:10:22;29.58;;;15.90;;
23232;SDS011;11785;49.500;8.288;2022-12-10T01:12:48;31.25;;;16.50;;
23232;SDS011;11785;49.500;8.288;2022-12-10T01:15:13;33.70;;;16.30;;
23232;SDS011;11785;49.500;8.288;2022-12-10T01:17:39;30.17;;;16.40;;
23232;SDS011;11785;49.500;8.288;2022-12-10T01:20:05;31.27;;;16.02;;
23232;SDS011;11785;49.500;8.288;2022-12-10T01:22:31;30.30;;;16.73;;
23232;SDS011;11785;49.500;8.288;2022-12-10T01:24:57;29.60;;;15.85;;
23232;SDS011;11785;49.500;8.288;2022-12-10T01:27:22;32.67;;;16.73;;
23232;SDS011;11785;49.500;8.288;2022-12-10T01:29:48;30.33;;;15.85;;
23232;SDS011;11785;49.500;8.288;2022-12-10T01:32:13;32.03;;;16.50;;
23232;SDS011;11785;49.500;8.288;2022-12-10T01:34:39;31.73;;;16.05;;
23232;SDS011;11785;49.500;8.288;2022-12-10T01:37:05;33.83;;;16.27;;
23232;SDS011;11785;49.500;8.288;2022-12-10T01:39:30;30.80;;;16.23;;
23232;SDS011;11785;49.500;8.288;2022-12-10T01:41:57;31.08;;;16.13;;
23232;SDS011;11785;49.500;8.288;2022-12-10T01:46:57;30.05;;;15.48;;
23232;SDS011;11785;49.500;8.288;2022-12-10T01:49:26;31.85;;;16.20;;
23232;SDS011;11785;49.500;8.288;2022-12-10T01:51:59;35.80;;;17.08;;
23232;SDS011;11785;49.500;8.288;2022-12-10T01:54:27;34.55;;;16.02;;
23232;SDS011;11785;49.500;8.288;2022-12-10T01:57:03;32.60;;;16.95;;
23232;SDS011;11785;49.500;8.288;2022-12-10T01:59:36;30.42;;;15.65;;
23232;SDS011;11785;49.500;8.288;2022-12-10T02:07:20;32.42;;;16.27;;
23232;SDS011;11785;49.500;8.288;2022-12-10T02:09:58;30.13;;;16.27;;
23232;SDS011;11785;49.500;8.288;2022-12-10T02:12:46;31.63;;;15.90;;
23232;SDS011;11785;49.500;8.288;2022-12-10T02:15:18;30.38;;;15.88;;
23232;SDS011;11785;49.500;8.288;2022-12-10T02:17:50;34.15;;;16.83;;
23232;SDS011;11785;49.500;8.288;2022-12-10T02:20:29;34.58;;;16.23;;
23232;SDS011;11785;49.500;8.288;2022-12-10T02:23:07;36.20;;;17.40;;
23232;SDS011;11785;49.500;8.288;2022-12-10T02:25:43;34.67;;;17.02;;
23232;SDS011;11785;49.500;8.288;2022-12-10T02:30:47;31.27;;;15.65;;
23232;SDS011;11785;49.500;8.288;2022-12-10T02:33:16;33.05;;;17.20;;
23232;SDS011;11785;49.500;8.288;2022-12-10T02:35:43;31.05;;;16.85;;
23232;SDS011;11785;49.500;8.288;2022-12-10T02:38:15;36.00;;;16.70;;
23232;SDS011;11785;49.500;8.288;2022-12-10T02:40:46;32.70;;;16.45;;
23232;SDS011;11785;49.500;8.288;2022-12-10T02:43:14;34.63;;;17.02;;
23232;SDS011;11785;49.500;8.288;2022-12-10T02:45:41;35.80;;;17.33;;
23232;SDS011;11785;49.500;8.288;2022-12-10T02:48:08;33.42;;;16.92;;
23232;SDS011;11785;49.500;8.288;2022-12-10T02:50:35;30.58;;;16.08;;
23232;SDS011;11785;49.500;8.288;2022-12-10T02:53:01;34.30;;;16.92;;
23232;SDS011;11785;49.500;8.288;2022-12-10T02:55:27;33.55;;;16.10;;
23232;SDS011;11785;49.500;8.288;2022-12-10T02:58:10;31.27;;;16.38;;
23232;SDS011;11785;49.500;8.288;2022-12-10T03:00:50;32.42;;;16.48;;
23232;SDS011;11785;49.500;8.288;2022-12-10T03:03:27;32.13;;;16.38;;
23232;SDS011;11785;49.500;8.288;2022-12-10T03:08:34;34.65;;;17.30;;
23232;SDS011;11785;49.500;8.288;2022-12-10T03:11:16;37.45;;;17.20;;
23232;SDS011;11785;49.500;8.288;2022-12-10T03:16:14;34.28;;;16.30;;
23232;SDS011;11785;49.500;8.288;2022-12-10T03:18:41;34.83;;;16.50;;
23232;SDS011;11785;49.500;8.288;2022-12-10T03:21:09;33.22;;;17.75;;
23232;SDS011;11785;49.500;8.288;2022-12-10T03:23:36;32.83;;;17.55;;
23232;SDS011;11785;49.500;8.288;2022-12-10T03:26:05;35.38;;;17.08;;
23232;SDS011;11785;49.500;8.288;2022-12-10T03:28:36;37.65;;;17.75;;
23232;SDS011;11785;49.500;8.288;2022-12-10T03:31:06;32.92;;;16.40;;
23232;SDS011;11785;49.500;8.288;2022-12-10T03:33:34;33.80;;;17.10;;
23232;SDS011;11785;49.500;8.288;2022-12-10T03:36:00;34.40;;;16.50;;
23232;SDS011;11785;49.500;8.288;2022-12-10T03:38:27;32.13;;;16.20;;
23232;SDS011;11785;49.500;8.288;2022-12-10T03:40:53;32.55;;;16.60;;
23232;SDS011;11785;49.500;8.288;2022-12-10T03:43:18;35.05;;;16.80;;
23232;SDS011;11785;49.500;8.288;2022-12-10T03:45:46;34.50;;;17.65;;
23232;SDS011;11785;49.500;8.288;2022-12-10T03:48:11;38.88;;;17.17;;
23232;SDS011;11785;49.500;8.288;2022-12-10T03:50:37;37.95;;;17.48;;
23232;SDS011;11785;49.500;8.288;2022-12-10T03:53:03;35.03;;;16.95;;
23232;SDS011;11785;49.500;8.288;2022-12-10T03:55:28;35.05;;;17.10;;
23232;SDS011;11785;49.500;8.288;2022-12-10T03:57:54;33.38;;;15.98;;
23232;SDS011;11785;49.500;8.288;2022-12-10T04:00:19;32.83;;;16.50;;
23232;SDS011;11785;49.500;8.288;2022-12-10T04:02:45;32.80;;;16.33;;
23232;SDS011;11785;49.500;8.288;2022-12-10T04:05:10;33.65;;;15.98;;
23232;SDS011;11785;49.500;8.288;2022-12-10T04:07:36;37.55;;;17.30;;
23232;SDS011;11785;49.500;8.288;2022-12-10T04:10:02;33.50;;;16.52;;
23232;SDS011;11785;49.500;8.288;2022-12-10T04:12:28;34.08;;;16.52;;
23232;SDS011;11785;49.500;8.288;2022-12-10T04:14:54;31.98;;;16.25;;
23232;SDS011;11785;49.500;8.288;2022-12-10T04:17:38;31.95;;;16.27;;
23232;SDS011;11785;49.500;8.288;2022-12-10T04:20:03;28.38;;;15.68;;
23232;SDS011;11785;49.500;8.288;2022-12-10T04:22:29;33.70;;;15.82;;
23232;SDS011;11785;49.500;8.288;2022-12-10T04:25:13;32.83;;;15.63;;
23232;SDS011;11785;49.500;8.288;2022-12-10T04:27:57;33.35;;;15.57;;
23232;SDS011;11785;49.500;8.288;2022-12-10T04:30:23;29.98;;;15.57;;
23232;SDS011;11785;49.500;8.288;2022-12-10T04:32:49;29.88;;;14.60;;
23232;SDS011;11785;49.500;8.288;2022-12-10T04:35:14;29.58;;;14.55;;
23232;SDS011;11785;49.500;8.288;2022-12-10T04:37:40;28.95;;;14.48;;
23232;SDS011;11785;49.500;8.288;2022-12-10T04:40:06;30.08;;;14.90;;
23232;SDS011;11785;49.500;8.288;2022-12-10T04:42:32;29.20;;;14.95;;
23232;SDS011;11785;49.500;8.288;2022-12-10T04:44:58;27.85;;;14.35;;
23232;SDS011;11785;49.500;8.288;2022-12-10T04:47:23;27.52;;;14.50;;
23232;SDS011;11785;49.500;8.288;2022-12-10T04:49:49;25.90;;;13.65;;
23232;SDS011;11785;49.500;8.288;2022-12-10T04:52:15;26.48;;;13.68;;
23232;SDS011;11785;49.500;8.288;2022-12-10T04:54:41;29.83;;;14.98;;
23232;SDS011;11785;49.500;8.288;2022-12-10T04:57:07;26.80;;;13.75;;
23232;SDS011;11785;49.500;8.288;2022-12-10T04:59:34;27.50;;;13.23;;
23232;SDS011;11785;49.500;8.288;2022-12-10T05:02:00;26.48;;;13.70;;
23232;SDS011;11785;49.500;8.288;2022-12-10T05:04:25;29.25;;;14.50;;
23232;SDS011;11785;49.500;8.288;2022-12-10T05:06:54;28.55;;;14.65;;
23232;SDS011;11785;49.500;8.288;2022-12-10T05:09:19;28.35;;;14.02;;
23232;SDS011;11785;49.500;8.288;2022-12-10T05:11:45;29.50;;;14.85;;
23232;SDS011;11785;49.500;8.288;2022-12-10T05:14:11;28.08;;;14.80;;
23232;SDS011;11785;49.500;8.288;2022-12-10T05:16:37;28.92;;;14.25;;
23232;SDS011;11785;49.500;8.288;2022-12-10T05:19:03;30.58;;;14.35;;
23232;SDS011;11785;49.500;8.288;2022-12-10T05:21:28;29.17;;;15.07;;
23232;SDS011;11785;49.500;8.288;2022-12-10T05:24:13;26.45;;;13.77;;
23232;SDS011;11785;49.500;8.288;2022-12-10T05:26:40;27.13;;;14.38;;
23232;SDS011;11785;49.500;8.288;2022-12-10T05:29:06;26.73;;;13.63;;
23232;SDS011;11785;49.500;8.288;2022-12-10T05:31:32;26.05;;;13.77;;
23232;SDS011;11785;49.500;8.288;2022-12-10T05:33:58;26.67;;;13.77;;
23232;SDS011;11785;49.500;8.288;2022-12-10T05:36:27;25.60;;;13.13;;
23232;SDS011;11785;49.500;8.288;2022-12-10T05:38:55;24.63;;;13.25;;
23232;SDS011;11785;49.500;8.288;2022-12-10T05:41:22;22.42;;;12.52;;
23232;SDS011;11785;49.500;8.288;2022-12-10T05:43:50;22.77;;;12.20;;
23232;SDS011;11785;49.500;8.288;2022-12-10T05:46:20;23.02;;;11.68;;
23232;SDS011;11785;49.500;8.288;2022-12-10T05:48:48;21.65;;;12.02;;
23232;SDS011;11785;49.500;8.288;2022-12-10T05:51:15;21.02;;;11.02;;
23232;SDS011;11785;49.500;8.288;2022-12-10T05:53:43;21.05;;;11.63;;
23232;SDS011;11785;49.500;8.288;2022-12-10T05:56:16;23.75;;;12.25;;
23232;SDS011;11785;49.500;8.288;2022-12-10T05:58:44;23.85;;;13.20;;
23232;SDS011;11785;49.500;8.288;2022-12-10T06:01:16;22.20;;;12.07;;
23232;SDS011;11785;49.500;8.288;2022-12-10T06:03:43;23.08;;;11.65;;
23232;SDS011;11785;49.500;8.288;2022-12-10T06:06:09;22.33;;;12.23;;
23232;SDS011;11785;49.500;8.288;2022-12-10T06:08:36;27.67;;;13.35;;
23232;SDS011;11785;49.500;8.288;2022-12-10T06:11:03;25.73;;;13.50;;
23232;SDS011;11785;49.500;8.288;2022-12-10T06:13:33;27.77;;;13.77;;
23232;SDS011;11785;49.500;8.288;2022-12-10T06:15:59;23.10;;;12.75;;
23232;SDS011;11785;49.500;8.288;2022-12-10T06:18:32;27.58;;;12.80;;
23232;SDS011;11785;49.500;8.288;2022-12-10T06:20:58;23.80;;;13.07;;
23232;SDS011;11785;49.500;8.288;2022-12-10T06:23:24;25.17;;;13.55;;
23232;SDS011;11785;49.500;8.288;2022-12-10T06:25:49;23.30;;;12.23;;
23232;SDS011;11785;49.500;8.288;2022-12-10T06:28:15;24.75;;;13.45;;
23232;SDS011;11785;49.500;8.288;2022-12-10T06:30:40;25.08;;;13.32;;
23232;SDS011;11785;49.500;8.288;2022-12-10T06:33:06;27.60;;;13.18;;
23232;SDS011;11785;49.500;8.288;2022-12-10T06:35:31;30.02;;;14.45;;
23232;SDS011;11785;49.500;8.288;2022-12-10T06:37:57;27.20;;;14.18;;
23232;SDS011;11785;49.500;8.288;2022-12-10T06:40:22;24.98;;;13.38;;
23232;SDS011;11785;49.500;8.288;2022-12-10T06:42:50;30.67;;;14.23;;
23232;SDS011;11785;49.500;8.288;2022-12-10T06:45:16;28.65;;;13.85;;
23232;SDS011;11785;49.500;8.288;2022-12-10T06:47:42;26.17;;;13.35;;
23232;SDS011;11785;49.500;8.288;2022-12-10T06:50:07;25.02;;;13.20;;
23232;SDS011;11785;49.500;8.288;2022-12-10T06:52:33;20.73;;;12.13;;
23232;SDS011;11785;49.500;8.288;2022-12-10T06:54:59;21.05;;;12.20;;
23232;SDS011;11785;49.500;8.288;2022-12-10T06:57:24;22.40;;;12.30;;
23232;SDS011;11785;49.500;8.288;2022-12-10T06:59:50;26.13;;;13.25;;
23232;SDS011;11785;49.500;8.288;2022-12-10T07:02:15;22.95;;;12.32;;
23232;SDS011;11785;49.500;8.288;2022-12-10T07:04:41;24.08;;;12.57;;
23232;SDS011;11785;49.500;8.288;2022-12-10T07:07:06;24.05;;;12.43;;
23232;SDS011;11785;49.500;8.288;2022-12-10T07:09:32;27.33;;;12.70;;
23232;SDS011;11785;49.500;8.288;2022-12-10T07:11:58;25.50;;;13.32;;
23232;SDS011;11785;49.500;8.288;2022-12-10T07:14:24;30.77;;;13.93;;
23232;SDS011;11785;49.500;8.288;2022-12-10T07:16:50;25.08;;;12.73;;
23232;SDS011;11785;49.500;8.288;2022-12-10T07:19:16;31.63;;;13.30;;
23232;SDS011;11785;49.500;8.288;2022-12-10T07:21:43;27.63;;;13.82;;
23232;SDS011;11785;49.500;8.288;2022-12-10T07:24:12;28.80;;;13.80;;
23232;SDS011;11785;49.500;8.288;2022-12-10T07:26:40;26.30;;;13.20;;
23232;SDS011;11785;49.500;8.288;2022-12-10T07:29:09;26.30;;;13.27;;
23232;SDS011;11785;49.500;8.288;2022-12-10T07:31:37;27.52;;;13.32;;
23232;SDS011;11785;49.500;8.288;2022-12-10T07:34:02;24.92;;;13.18;;
23232;SDS011;11785;49.500;8.288;2022-12-10T07:36:28;24.00;;;12.80;;
23232;SDS011;11785;49.500;8.288;2022-12-10T07:38:54;24.80;;;13.40;;
23232;SDS011;11785;49.500;8.288;2022-12-10T07:41:20;25.27;;;12.82;;
23232;SDS011;11785;49.500;8.288;2022-12-10T07:43:47;25.45;;;12.82;;
23232;SDS011;11785;49.500;8.288;2022-12-10T07:46:20;23.73;;;12.82;;
23232;SDS011;11785;49.500;8.288;2022-12-10T07:48:50;23.98;;;12.98;;
23232;SDS011;11785;49.500;8.288;2022-12-10T07:51:17;27.98;;;14.27;;
23232;SDS011;11785;49.500;8.288;2022-12-10T07:53:45;23.00;;;13.07;;
23232;SDS011;11785;49.500;8.288;2022-12-10T07:56:11;24.08;;;13.13;;
23232;SDS011;11785;49.500;8.288;2022-12-10T07:58:37;26.13;;;13.32;;
23232;SDS011;11785;49.500;8.288;2022-12-10T08:01:11;23.92;;;11.70;;
23232;SDS011;11785;49.500;8.288;2022-12-10T08:03:38;20.80;;;11.85;;
23232;SDS011;11785;49.500;8.288;2022-12-10T08:06:08;24.52;;;13.40;;
23232;SDS011;11785;49.500;8.288;2022-12-10T08:08:36;24.33;;;12.95;;
23232;SDS011;11785;49.500;8.288;2022-12-10T08:11:02;20.02;;;12.20;;
23232;SDS011;11785;49.500;8.288;2022-12-10T08:13:29;21.30;;;11.40;;
23232;SDS011;11785;49.500;8.288;2022-12-10T08:16:00;21.95;;;11.50;;
23232;SDS011;11785;49.500;8.288;2022-12-10T08:18:30;18.25;;;10.73;;
23232;SDS011;11785;49.500;8.288;2022-12-10T08:20:56;20.83;;;10.65;;
23232;SDS011;11785;49.500;8.288;2022-12-10T08:23:21;16.60;;;10.32;;
23232;SDS011;11785;49.500;8.288;2022-12-10T08:25:47;18.65;;;10.50;;
23232;SDS011;11785;49.500;8.288;2022-12-10T08:28:12;18.80;;;10.43;;
23232;SDS011;11785;49.500;8.288;2022-12-10T08:30:38;18.98;;;10.90;;
23232;SDS011;11785;49.500;8.288;2022-12-10T08:33:03;19.80;;;10.32;;
23232;SDS011;11785;49.500;8.288;2022-12-10T08:35:29;20.15;;;11.43;;
23232;SDS011;11785;49.500;8.288;2022-12-10T08:37:55;18.77;;;11.15;;
23232;SDS011;11785;49.500;8.288;2022-12-10T08:40:20;18.33;;;10.68;;
23232;SDS011;11785;49.500;8.288;2022-12-10T08:42:46;19.63;;;11.23;;
23232;SDS011;11785;49.500;8.288;2022-12-10T08:45:11;18.35;;;10.48;;
23232;SDS011;11785;49.500;8.288;2022-12-10T08:47:37;18.95;;;10.35;;
23232;SDS011;11785;49.500;8.288;2022-12-10T08:50:02;21.02;;;10.43;;
23232;SDS011;11785;49.500;8.288;2022-12-10T08:52:29;19.00;;;10.05;;
23232;SDS011;11785;49.500;8.288;2022-12-10T08:54:54;18.80;;;10.15;;
23232;SDS011;11785;49.500;8.288;2022-12-10T08:57:20;20.35;;;9.65;;
23232;SDS011;11785;49.500;8.288;2022-12-10T08:59:46;14.80;;;9.23;;
23232;SDS011;11785;49.500;8.288;2022-12-10T09:02:11;20.58;;;10.60;;
23232;SDS011;11785;49.500;8.288;2022-12-10T09:04:37;19.20;;;10.00;;
23232;SDS011;11785;49.500;8.288;2022-12-10T09:07:04;22.30;;;9.50;;
23232;SDS011;11785;49.500;8.288;2022-12-10T09:09:30;16.75;;;9.77;;
23232;SDS011;11785;49.500;8.288;2022-12-10T09:11:56;17.30;;;10.60;;
23232;SDS011;11785;49.500;8.288;2022-12-10T09:14:22;16.67;;;10.00;;
23232;SDS011;11785;49.500;8.288;2022-12-10T09:16:48;18.17;;;10.52;;
23232;SDS011;11785;49.500;8.288;2022-12-10T09:19:14;21.73;;;11.00;;
23232;SDS011;11785;49.500;8.288;2022-12-10T09:21:40;15.43;;;9.57;;
23232;SDS011;11785;49.500;8.288;2022-12-10T09:24:06;19.70;;;9.52;;
23232;SDS011;11785;49.500;8.288;2022-12-10T09:26:31;15.07;;;9.60;;
23232;SDS011;11785;49.500;8.288;2022-12-10T09:28:57;18.42;;;9.60;;
23232;SDS011;11785;49.500;8.288;2022-12-10T09:31:23;16.95;;;10.00;;
23232;SDS011;11785;49.500;8.288;2022-12-10T09:33:50;20.50;;;9.88;;
23232;SDS011;11785;49.500;8.288;2022-12-10T09:36:17;16.83;;;9.65;;
23232;SDS011;11785;49.500;8.288;2022-12-10T09:38:44;16.35;;;9.30;;
23232;SDS011;11785;49.500;8.288;2022-12-10T09:43:52;17.00;;;9.52;;
23232;SDS011;11785;49.500;8.288;2022-12-10T09:46:26;16.23;;;9.55;;
23232;SDS011;11785;49.500;8.288;2022-12-10T09:51:57;15.93;;;8.95;;
23232;SDS011;11785;49.500;8.288;2022-12-10T09:54:26;9.73;;;6.30;;
23232;SDS011;11785;49.500;8.288;2022-12-10T09:56:55;15.93;;;9.10;;
23232;SDS011;11785;49.500;8.288;2022-12-10T09:59:24;15.52;;;9.00;;
23232;SDS011;11785;49.500;8.288;2022-12-10T10:02:16;12.73;;;8.57;;
23232;SDS011;11785;49.500;8.288;2022-12-10T10:04:48;19.92;;;9.38;;
23232;SDS011;11785;49.500;8.288;2022-12-10T10:07:22;15.68;;;8.48;;
23232;SDS011;11785;49.500;8.288;2022-12-10T10:09:51;18.17;;;8.85;;
23232;SDS011;11785;49.500;8.288;2022-12-10T10:12:21;14.85;;;9.18;;
23232;SDS011;11785;49.500;8.288;2022-12-10T10:14:47;15.10;;;8.10;;
23232;SDS011;11785;49.500;8.288;2022-12-10T10:17:19;16.20;;;9.88;;
23232;SDS011;11785;49.500;8.288;2022-12-10T10:19:48;15.75;;;8.48;;
23232;SDS011;11785;49.500;8.288;2022-12-10T10:22:14;17.08;;;8.77;;
23232;SDS011;11785;49.500;8.288;2022-12-10T10:24:41;16.25;;;9.90;;
23232;SDS011;11785;49.500;8.288;2022-12-10T10:27:27;14.02;;;8.90;;
23232;SDS011;11785;49.500;8.288;2022-12-10T10:29:56;15.60;;;8.70;;
23232;SDS011;11785;49.500;8.288;2022-12-10T10:32:24;16.08;;;8.88;;
23232;SDS011;11785;49.500;8.288;2022-12-10T10:35:34;12.52;;;7.47;;
23232;SDS011;11785;49.500;8.288;2022-12-10T10:38:07;13.60;;;8.57;;
23232;SDS011;11785;49.500;8.288;2022-12-10T10:40:40;13.38;;;8.80;;
23232;SDS011;11785;49.500;8.288;2022-12-10T10:43:12;13.10;;;8.20;;
23232;SDS011;11785;49.500;8.288;2022-12-10T10:45:43;14.52;;;8.77;;
23232;SDS011;11785;49.500;8.288;2022-12-10T10:50:44;13.25;;;8.10;;
23232;SDS011;11785;49.500;8.288;2022-12-10T10:56:08;13.55;;;8.00;;
23232;SDS011;11785;49.500;8.288;2022-12-10T10:58:35;12.85;;;7.70;;
23232;SDS011;11785;49.500;8.288;2022-12-10T11:01:05;11.98;;;7.50;;
23232;SDS011;11785;49.500;8.288;2022-12-10T11:03:33;11.70;;;7.10;;
23232;SDS011;11785;49.500;8.288;2022-12-10T11:06:01;12.45;;;8.07;;
23232;SDS011;11785;49.500;8.288;2022-12-10T11:08:31;12.07;;;7.70;;
23232;SDS011;11785;49.500;8.288;2022-12-10T11:10:58;13.32;;;7.97;;
23232;SDS011;11785;49.500;8.288;2022-12-10T11:13:30;19.17;;;11.15;;
23232;SDS011;11785;49.500;8.288;2022-12-10T11:18:30;10.77;;;7.30;;
23232;SDS011;11785;49.500;8.288;2022-12-10T11:21:05;13.10;;;7.38;;
23232;SDS011;11785;49.500;8.288;2022-12-10T11:24:04;14.02;;;8.30;;
23232;SDS011;11785;49.500;8.288;2022-12-10T11:29:46;11.50;;;7.75;;
23232;SDS011;11785;49.500;8.288;2022-12-10T11:40:33;11.63;;;7.18;;
23232;SDS011;11785;49.500;8.288;2022-12-10T11:43:06;13.68;;;7.43;;
23232;SDS011;11785;49.500;8.288;2022-12-10T11:56:45;12.75;;;8.18;;
23232;SDS011;11785;49.500;8.288;2022-12-10T11:59:32;15.90;;;8.13;;
23232;SDS011;11785;49.500;8.288;2022-12-10T12:08:41;13.63;;;7.97;;
23232;SDS011;11785;49.500;8.288;2022-12-10T12:11:22;12.43;;;6.47;;
23232;SDS011;11785;49.500;8.288;2022-12-10T12:14:11;12.98;;;8.13;;
23232;SDS011;11785;49.500;8.288;2022-12-10T12:16:47;13.85;;;7.53;;
23232;SDS011;11785;49.500;8.288;2022-12-10T12:19:43;13.02;;;8.02;;
23232;SDS011;11785;49.500;8.288;2022-12-10T12:22:15;13.20;;;7.78;;
23232;SDS011;11785;49.500;8.288;2022-12-10T12:24:41;13.38;;;7.82;;
23232;SDS011;11785;49.500;8.288;2022-12-10T12:27:25;25.63;;;11.80;;
23232;SDS011;11785;49.500;8.288;2022-12-10T12:30:16;14.07;;;7.95;;
23232;SDS011;11785;49.500;8.288;2022-12-10T12:38:46;15.60;;;8.40;;
23232;SDS011;11785;49.500;8.288;2022-12-10T12:43:48;13.23;;;8.40;;
23232;SDS011;11785;49.500;8.288;2022-12-10T12:46:26;16.63;;;8.15;;
23232;SDS011;11785;49.500;8.288;2022-12-10T12:49:01;12.68;;;8.07;;
23232;SDS011;11785;49.500;8.288;2022-12-10T12:51:38;14.30;;;8.57;;
23232;SDS011;11785;49.500;8.288;2022-12-10T12:54:11;13.25;;;7.82;;
23232;SDS011;11785;49.500;8.288;2022-12-10T13:05:25;15.90;;;9.43;;
23232;SDS011;11785;49.500;8.288;2022-12-10T13:10:46;14.80;;;9.15;;
23232;SDS011;11785;49.500;8.288;2022-12-10T13:15:52;14.40;;;8.57;;
23232;SDS011;11785;49.500;8.288;2022-12-10T13:18:20;14.13;;;8.07;;
23232;SDS011;11785;49.500;8.288;2022-12-10T13:21:26;14.93;;;9.32;;
23232;SDS011;11785;49.500;8.288;2022-12-10T13:23:54;12.60;;;8.65;;
23232;SDS011;11785;49.500;8.288;2022-12-10T13:26:31;15.75;;;9.18;;
23232;SDS011;11785;49.500;8.288;2022-12-10T13:29:22;18.30;;;9.65;;
23232;SDS011;11785;49.500;8.288;2022-12-10T13:31:55;14.88;;;8.32;;
23232;SDS011;11785;49.500;8.288;2022-12-10T13:34:32;18.52;;;10.00;;
23232;SDS011;11785;49.500;8.288;2022-12-10T13:45:01;15.88;;;9.90;;
23232;SDS011;11785;49.500;8.288;2022-12-10T13:47:47;15.13;;;8.93;;
23232;SDS011;11785;49.500;8.288;2022-12-10T13:55:38;14.98;;;9.13;;
23232;SDS011;11785;49.500;8.288;2022-12-10T14:00:31;18.30;;;9.90;;
23232;SDS011;11785;49.500;8.288;2022-12-10T14:09:03;15.85;;;8.90;;
23232;SDS011;11785;49.500;8.288;2022-12-10T14:11:31;16.45;;;9.20;;
23232;SDS011;11785;49.500;8.288;2022-12-10T14:14:01;16.27;;;9.52;;
23232;SDS011;11785;49.500;8.288;2022-12-10T14:16:30;15.85;;;9.75;;
23232;SDS011;11785;49.500;8.288;2022-12-10T14:19:01;19.02;;;8.65;;
23232;SDS011;11785;49.500;8.288;2022-12-10T14:21:34;19.83;;;11.38;;
23232;SDS011;11785;49.500;8.288;2022-12-10T14:24:01;14.93;;;8.70;;
23232;SDS011;11785;49.500;8.288;2022-12-10T14:26:29;13.40;;;8.43;;
23232;SDS011;11785;49.500;8.288;2022-12-10T14:29:08;13.07;;;8.30;;
23232;SDS011;11785;49.500;8.288;2022-12-10T14:31:44;13.50;;;7.65;;
23232;SDS011;11785;49.500;8.288;2022-12-10T14:34:14;14.38;;;8.18;;
23232;SDS011;11785;49.500;8.288;2022-12-10T14:36:46;12.60;;;8.07;;
23232;SDS011;11785;49.500;8.288;2022-12-10T14:39:17;17.83;;;9.07;;
23232;SDS011;11785;49.500;8.288;2022-12-10T14:41:47;16.83;;;9.35;;
23232;SDS011;11785;49.500;8.288;2022-12-10T14:44:17;15.23;;;8.90;;
23232;SDS011;11785;49.500;8.288;2022-12-10T14:46:43;14.93;;;9.20;;
23232;SDS011;11785;49.500;8.288;2022-12-10T14:49:15;15.85;;;9.93;;
23232;SDS011;11785;49.500;8.288;2022-12-10T14:51:43;16.15;;;9.32;;
23232;SDS011;11785;49.500;8.288;2022-12-10T14:56:56;16.83;;;10.40;;
23232;SDS011;11785;49.500;8.288;2022-12-10T14:59:28;15.77;;;9.90;;
23232;SDS011;11785;49.500;8.288;2022-12-10T15:04:45;18.75;;;9.52;;
23232;SDS011;11785;49.500;8.288;2022-12-10T15:07:14;19.35;;;10.55;;
23232;SDS011;11785;49.500;8.288;2022-12-10T15:09:44;18.23;;;9.38;;
23232;SDS011;11785;49.500;8.288;2022-12-10T15:12:19;17.08;;;9.65;;
23232;SDS011;11785;49.500;8.288;2022-12-10T15:14:51;17.58;;;9.93;;
23232;SDS011;11785;49.500;8.288;2022-12-10T15:17:36;17.55;;;10.15;;
23232;SDS011;11785;49.500;8.288;2022-12-10T15:20:19;17.60;;;11.07;;
23232;SDS011;11785;49.500;8.288;2022-12-10T15:22:46;20.20;;;10.70;;
23232;SDS011;11785;49.500;8.288;2022-12-10T15:25:26;16.75;;;9.52;;
23232;SDS011;11785;49.500;8.288;2022-12-10T15:27:54;17.02;;;9.65;;
23232;SDS011;11785;49.500;8.288;2022-12-10T15:30:22;16.13;;;9.43;;
23232;SDS011;11785;49.500;8.288;2022-12-10T15:32:49;17.65;;;10.52;;
23232;SDS011;11785;49.500;8.288;2022-12-10T15:35:15;22.17;;;10.55;;
23232;SDS011;11785;49.500;8.288;2022-12-10T15:37:41;20.05;;;10.85;;
23232;SDS011;11785;49.500;8.288;2022-12-10T15:40:21;20.60;;;11.00;;
23232;SDS011;11785;49.500;8.288;2022-12-10T15:42:47;20.38;;;10.98;;
23232;SDS011;11785;49.500;8.288;2022-12-10T15:45:26;20.85;;;10.80;;
23232;SDS011;11785;49.500;8.288;2022-12-10T15:48:03;26.45;;;13.93;;
23232;SDS011;11785;49.500;8.288;2022-12-10T15:50:37;34.45;;;17.75;;
23232;SDS011;11785;49.500;8.288;2022-12-10T15:53:03;70.15;;;35.28;;
23232;SDS011;11785;49.500;8.288;2022-12-10T15:55:29;135.02;;;61.05;;
23232;SDS011;11785;49.500;8.288;2022-12-10T15:57:55;59.63;;;30.35;;
23232;SDS011;11785;49.500;8.288;2022-12-10T16:00:21;24.23;;;13.35;;
23232;SDS011;11785;49.500;8.288;2022-12-10T16:02:50;25.05;;;14.02;;
23232;SDS011;11785;49.500;8.288;2022-12-10T16:07:52;25.08;;;12.85;;
23232;SDS011;11785;49.500;8.288;2022-12-10T16:10:20;21.98;;;12.75;;
23232;SDS011;11785;49.500;8.288;2022-12-10T16:12:48;28.10;;;14.90;;
23232;SDS011;11785;49.500;8.288;2022-12-10T16:15:35;26.67;;;14.60;;
23232;SDS011;11785;49.500;8.288;2022-12-10T16:18:07;28.03;;;15.53;;
23232;SDS011;11785;49.500;8.288;2022-12-10T16:20:35;26.23;;;15.15;;
23232;SDS011;11785;49.500;8.288;2022-12-10T16:23:01;32.45;;;16.92;;
23232;SDS011;11785;49.500;8.288;2022-12-10T16:25:28;26.55;;;14.65;;
23232;SDS011;11785;49.500;8.288;2022-12-10T16:27:55;24.77;;;13.77;;
23232;SDS011;11785;49.500;8.288;2022-12-10T16:30:36;28.98;;;15.77;;